createdAt,value
2019-03-23T00:00:02.359Z,464.022003
2019-03-23T00:00:10.362Z,464.217010
2019-03-23T00:00:17.365Z,463.588013
2019-03-23T00:00:24.364Z,462.687012
2019-03-23T00:00:31.360Z,464.265015
2019-03-23T00:00:38.365Z,466.273010
2019-03-23T00:00:45.381Z,469.213989
2019-03-23T00:00:52.351Z,468.506989
2019-03-23T00:00:59.359Z,466.576996
2019-03-23T00:01:06.395Z,464.281006
2019-03-23T00:01:13.383Z,462.290985
2019-03-23T00:01:20.376Z,461.251007
2019-03-23T00:01:27.346Z,458.308990
2019-03-23T00:01:33.372Z,453.411987
2019-03-23T00:01:39.366Z,454.165009
2019-03-23T00:01:45.367Z,457.006012
2019-03-23T00:01:51.390Z,460.513000
2019-03-23T00:01:57.355Z,462.063995
2019-03-23T00:02:03.365Z,459.867004
2019-03-23T00:02:09.364Z,458.660004
2019-03-23T00:02:15.364Z,457.453003
2019-03-23T00:02:21.362Z,454.619995
2019-03-23T00:02:27.376Z,454.942993
2019-03-23T00:02:33.375Z,454.638000
2019-03-23T00:02:39.359Z,455.778015
2019-03-23T00:02:45.353Z,457.825012
2019-03-23T00:02:51.350Z,457.404999
2019-03-23T00:02:57.378Z,456.696014
2019-03-23T00:03:03.372Z,455.798004
2019-03-23T00:03:09.370Z,454.839996
2019-03-23T00:03:15.370Z,451.201996
2019-03-23T00:03:21.362Z,450.230011
2019-03-23T00:03:27.356Z,452.320007
2019-03-23T00:03:33.350Z,453.221008
2019-03-23T00:03:39.365Z,453.845001
2019-03-23T00:03:45.358Z,452.399994
2019-03-23T00:03:51.352Z,453.329010
2019-03-23T00:03:57.384Z,454.407013
2019-03-23T00:04:03.354Z,456.022003
2019-03-23T00:04:09.352Z,456.432007
2019-03-23T00:04:15.381Z,455.059998
2019-03-23T00:04:21.348Z,454.446991
2019-03-23T00:04:27.359Z,453.635986
2019-03-23T00:04:33.345Z,454.061005
2019-03-23T00:04:39.368Z,456.839996
2019-03-23T00:04:45.367Z,460.445007
2019-03-23T00:04:51.378Z,463.673004
2019-03-23T00:04:57.361Z,467.681000
2019-03-23T00:05:03.352Z,468.225006
2019-03-23T00:05:09.345Z,468.920990
2019-03-23T00:05:15.374Z,469.287994
2019-03-23T00:05:21.386Z,469.786011
2019-03-23T00:05:27.350Z,468.997986
2019-03-23T00:05:33.371Z,468.092987
2019-03-23T00:05:39.364Z,467.825012
2019-03-23T00:05:45.360Z,467.128998
2019-03-23T00:05:51.356Z,465.526001
2019-03-23T00:05:57.360Z,466.394989
2019-03-23T00:06:03.358Z,466.679993
2019-03-23T00:06:09.355Z,467.341003
2019-03-23T00:06:15.374Z,467.059998
2019-03-23T00:06:30.988Z,467.580994
2019-03-23T00:06:37.367Z,466.135986
2019-03-23T00:06:43.364Z,465.338989
2019-03-23T00:06:49.379Z,468.109009
2019-03-23T00:06:55.370Z,465.960999
2019-03-23T00:07:01.350Z,460.234985
2019-03-23T00:07:07.369Z,457.019012
2019-03-23T00:07:13.371Z,459.067993
2019-03-23T00:07:19.364Z,461.308990
2019-03-23T00:07:25.360Z,462.376007
2019-03-23T00:07:31.376Z,463.351990
2019-03-23T00:07:37.373Z,465.028015
2019-03-23T00:07:43.364Z,466.576996
2019-03-23T00:07:49.382Z,467.330994
2019-03-23T00:07:55.358Z,466.885010
2019-03-23T00:08:01.360Z,465.130005
2019-03-23T00:08:07.366Z,462.880005
2019-03-23T00:08:13.366Z,461.273010
2019-03-23T00:08:19.374Z,461.544006
2019-03-23T00:08:25.370Z,462.864014
2019-03-23T00:08:31.376Z,463.880005
2019-03-23T00:08:37.370Z,465.255005
2019-03-23T00:08:43.382Z,465.755005
2019-03-23T00:08:49.355Z,465.579987
2019-03-23T00:08:55.369Z,465.651001
2019-03-23T00:09:01.369Z,465.408997
2019-03-23T00:09:07.380Z,464.984985
2019-03-23T00:09:13.364Z,464.347992
2019-03-23T00:09:19.362Z,463.475006
2019-03-23T00:09:25.358Z,461.990997
2019-03-23T00:09:31.376Z,461.596985
2019-03-23T00:09:37.393Z,461.489990
2019-03-23T00:09:43.365Z,461.881989
2019-03-23T00:09:49.358Z,461.850006
2019-03-23T00:09:55.356Z,461.375000
2019-03-23T00:10:01.344Z,461.046997
2019-03-23T00:10:07.389Z,460.171997
2019-03-23T00:10:13.359Z,460.609009
2019-03-23T00:10:19.364Z,461.089996
2019-03-23T00:10:25.440Z,462.076996
2019-03-23T00:10:31.358Z,462.760986
2019-03-23T00:10:37.358Z,462.490997
2019-03-23T00:10:43.353Z,461.888000
2019-03-23T00:10:49.373Z,459.231995
2019-03-23T00:10:55.427Z,457.259003
2019-03-23T00:11:01.373Z,454.618011
2019-03-23T00:11:07.366Z,454.860992
2019-03-23T00:11:13.364Z,455.640015
2019-03-23T00:11:19.372Z,458.898010
2019-03-23T00:11:25.404Z,459.880005
2019-03-23T00:11:31.345Z,462.404999
2019-03-23T00:11:37.383Z,464.795013
2019-03-23T00:11:43.357Z,466.688995
2019-03-23T00:11:49.347Z,466.811005
2019-03-23T00:11:55.393Z,467.059998
2019-03-23T00:12:01.360Z,465.927002
2019-03-23T00:12:07.352Z,466.269012
2019-03-23T00:12:13.398Z,468.584015
2019-03-23T00:12:19.352Z,470.397003
2019-03-23T00:12:25.354Z,471.584991
2019-03-23T00:12:31.370Z,473.114014
2019-03-23T00:12:37.374Z,471.787994
2019-03-23T00:12:43.364Z,467.319000
2019-03-23T00:12:49.362Z,466.151001
2019-03-23T00:12:55.354Z,467.556000
2019-03-23T00:13:01.407Z,471.036987
2019-03-23T00:13:07.350Z,474.390015
2019-03-23T00:13:13.344Z,479.342010
2019-03-23T00:13:19.369Z,482.121002
2019-03-23T00:13:25.376Z,480.868988
2019-03-23T00:13:31.366Z,480.015991
2019-03-23T00:13:37.374Z,476.229004
2019-03-23T00:13:43.371Z,474.143005
2019-03-23T00:13:49.380Z,470.085999
2019-03-23T00:13:55.372Z,466.593994
2019-03-23T00:14:01.377Z,465.898987
2019-03-23T00:14:07.366Z,464.873993
2019-03-23T00:14:13.370Z,469.162994
2019-03-23T00:14:19.389Z,471.675995
2019-03-23T00:14:25.364Z,476.812012
2019-03-23T00:14:31.371Z,478.674988
2019-03-23T00:14:37.367Z,477.338989
2019-03-23T00:14:43.383Z,473.417999
2019-03-23T00:14:49.362Z,470.440002
2019-03-23T00:14:55.356Z,468.382996
2019-03-23T00:15:01.358Z,465.708008
2019-03-23T00:15:07.370Z,464.053986
2019-03-23T00:15:13.359Z,464.694000
2019-03-23T00:15:19.353Z,464.972992
2019-03-23T00:15:25.378Z,465.226013
2019-03-23T00:15:31.359Z,462.813995
2019-03-23T00:15:37.356Z,461.800995
2019-03-23T00:15:43.353Z,461.485992
2019-03-23T00:15:49.378Z,462.558990
2019-03-23T00:15:55.367Z,465.183014
2019-03-23T00:16:01.369Z,467.945007
2019-03-23T00:16:07.363Z,469.889008
2019-03-23T00:16:13.354Z,471.421997
2019-03-23T00:16:19.349Z,473.733002
2019-03-23T00:16:25.394Z,472.278015
2019-03-23T00:16:31.377Z,472.492004
2019-03-23T00:16:37.376Z,473.480988
2019-03-23T00:16:43.381Z,472.329987
2019-03-23T00:16:49.359Z,471.333008
2019-03-23T00:16:55.347Z,470.046997
2019-03-23T00:17:01.367Z,469.674011
2019-03-23T00:17:07.351Z,468.455994
2019-03-23T00:17:13.371Z,464.901001
2019-03-23T00:17:19.370Z,463.846985
2019-03-23T00:17:25.363Z,463.630005
2019-03-23T00:17:31.351Z,464.446991
2019-03-23T00:17:38.367Z,465.924011
2019-03-23T00:17:45.363Z,465.389008
2019-03-23T00:17:52.368Z,467.509003
2019-03-23T00:17:59.357Z,467.583008
2019-03-23T00:18:06.359Z,465.106995
2019-03-23T00:18:13.360Z,463.493988
2019-03-23T00:18:20.357Z,463.421997
2019-03-23T00:18:27.350Z,464.609009
2019-03-23T00:18:34.378Z,465.037994
2019-03-23T00:18:41.351Z,464.782013
2019-03-23T00:18:48.374Z,466.006012
2019-03-23T00:18:55.353Z,468.183990
2019-03-23T00:19:02.361Z,471.598999
2019-03-23T00:19:09.349Z,473.862000
2019-03-23T00:19:16.366Z,476.657990
2019-03-23T00:19:23.365Z,476.914001
2019-03-23T00:19:30.361Z,476.557007
2019-03-23T00:19:37.377Z,475.450989
2019-03-23T00:19:44.376Z,475.039001
2019-03-23T00:19:51.377Z,474.123993
2019-03-23T00:19:58.335Z,473.087006
2019-03-23T00:20:05.374Z,470.700989
2019-03-23T00:20:12.380Z,469.684998
2019-03-23T00:20:19.351Z,466.661987
2019-03-23T00:20:26.369Z,465.622986
2019-03-23T00:20:33.381Z,466.893005
2019-03-23T00:20:40.352Z,466.101990
2019-03-23T00:20:47.373Z,466.091003
2019-03-23T00:20:54.369Z,467.134003
2019-03-23T00:21:01.374Z,468.115997
2019-03-23T00:21:08.371Z,469.075989
2019-03-23T00:21:15.377Z,468.210999
2019-03-23T00:21:22.384Z,465.216003
2019-03-23T00:21:29.394Z,463.753998
2019-03-23T00:21:36.375Z,462.250000
2019-03-23T00:21:43.368Z,460.372986
2019-03-23T00:21:50.369Z,460.101013
2019-03-23T00:21:57.365Z,460.354004
2019-03-23T00:22:04.360Z,460.795990
2019-03-23T00:22:11.379Z,461.773010
2019-03-23T00:22:18.378Z,462.488007
2019-03-23T00:22:25.358Z,462.157990
2019-03-23T00:22:32.362Z,459.165009
2019-03-23T00:22:39.360Z,458.824005
2019-03-23T00:22:46.363Z,459.059998
2019-03-23T00:22:53.351Z,458.709015
2019-03-23T00:23:00.362Z,459.260986
2019-03-23T00:23:07.358Z,459.466003
2019-03-23T00:23:14.367Z,460.865997
2019-03-23T00:23:21.380Z,462.059998
2019-03-23T00:23:28.350Z,460.924011
2019-03-23T00:23:35.346Z,458.132996
2019-03-23T00:23:42.375Z,455.893005
2019-03-23T00:23:49.378Z,455.872009
2019-03-23T00:23:56.352Z,456.132996
2019-03-23T00:24:03.367Z,455.401001
2019-03-23T00:24:10.370Z,453.118011
2019-03-23T00:24:17.380Z,450.207001
2019-03-23T00:24:24.372Z,446.140015
2019-03-23T00:24:31.371Z,444.367004
2019-03-23T00:24:38.375Z,446.506989
2019-03-23T00:24:45.377Z,450.531006
2019-03-23T00:24:52.358Z,451.944000
2019-03-23T00:24:59.378Z,454.472992
2019-03-23T00:25:06.401Z,458.127991
2019-03-23T00:25:13.375Z,461.072998
2019-03-23T00:25:19.382Z,462.088013
2019-03-23T00:25:25.376Z,464.644012
2019-03-23T00:25:31.368Z,465.967010
2019-03-23T00:25:37.365Z,466.205994
2019-03-23T00:25:43.371Z,465.381012
2019-03-23T00:25:49.374Z,465.118988
2019-03-23T00:25:55.366Z,463.010986
2019-03-23T00:26:01.369Z,459.549011
2019-03-23T00:26:07.358Z,456.971008
2019-03-23T00:26:13.578Z,452.641998
2019-03-23T00:26:19.351Z,449.141998
2019-03-23T00:26:25.382Z,446.471985
2019-03-23T00:26:31.648Z,441.115997
2019-03-23T00:26:37.355Z,439.036987
2019-03-23T00:26:43.373Z,436.497986
2019-03-23T00:26:49.372Z,435.411011
2019-03-23T00:26:55.391Z,436.515991
2019-03-23T00:27:01.382Z,436.997986
2019-03-23T00:27:07.392Z,443.204987
2019-03-23T00:27:13.352Z,447.992004
2019-03-23T00:27:19.369Z,453.432007
2019-03-23T00:27:25.397Z,459.178986
2019-03-23T00:27:31.383Z,462.641998
2019-03-23T00:27:37.392Z,467.635986
2019-03-23T00:27:43.372Z,470.920990
2019-03-23T00:27:49.383Z,471.910004
2019-03-23T00:27:55.380Z,473.096985
2019-03-23T00:28:01.379Z,472.753998
2019-03-23T00:28:07.380Z,468.578003
2019-03-23T00:28:13.373Z,466.368988
2019-03-23T00:28:19.368Z,466.442993
2019-03-23T00:28:25.369Z,466.252014
2019-03-23T00:28:31.348Z,466.028015
2019-03-23T00:28:37.376Z,466.125000
2019-03-23T00:28:43.387Z,465.975006
2019-03-23T00:28:49.358Z,467.218994
2019-03-23T00:28:55.357Z,468.158997
2019-03-23T00:29:01.387Z,468.994995
2019-03-23T00:29:07.387Z,469.130005
2019-03-23T00:29:13.380Z,469.096008
2019-03-23T00:29:19.373Z,470.304993
2019-03-23T00:29:25.378Z,470.889008
2019-03-23T00:29:31.370Z,470.720001
2019-03-23T00:29:37.361Z,470.108002
2019-03-23T00:29:43.358Z,469.050995
2019-03-23T00:29:49.368Z,468.886993
2019-03-23T00:29:55.385Z,467.364990
2019-03-23T00:30:01.408Z,465.496002
2019-03-23T00:30:07.363Z,463.539001
2019-03-23T00:30:13.359Z,461.381012
2019-03-23T00:30:19.361Z,459.886993
2019-03-23T00:30:25.351Z,459.022003
2019-03-23T00:30:31.374Z,461.079010
2019-03-23T00:30:37.374Z,464.903015
2019-03-23T00:30:43.371Z,467.824005
2019-03-23T00:30:49.384Z,470.024994
2019-03-23T00:30:55.358Z,474.575989
2019-03-23T00:31:01.394Z,477.946014
2019-03-23T00:31:07.383Z,476.476013
2019-03-23T00:31:13.349Z,477.308014
2019-03-23T00:31:19.370Z,475.424011
2019-03-23T00:31:25.374Z,471.247009
2019-03-23T00:31:31.373Z,472.423004
2019-03-23T00:31:37.399Z,473.796997
2019-03-23T00:31:44.368Z,470.632996
2019-03-23T00:31:51.387Z,465.106995
2019-03-23T00:31:58.365Z,464.489990
2019-03-23T00:32:05.371Z,462.489014
2019-03-23T00:32:12.379Z,460.218994
2019-03-23T00:32:19.375Z,460.351013
2019-03-23T00:32:26.355Z,459.244995
2019-03-23T00:32:33.350Z,458.022003
2019-03-23T00:32:40.378Z,457.559998
2019-03-23T00:32:47.378Z,459.859985
2019-03-23T00:32:54.373Z,461.845001
2019-03-23T00:33:01.408Z,464.744995
2019-03-23T00:33:08.356Z,467.813995
2019-03-23T00:33:15.353Z,467.147003
2019-03-23T00:33:22.351Z,469.609009
2019-03-23T00:33:29.366Z,469.371002
2019-03-23T00:33:36.367Z,472.368011
2019-03-23T00:33:43.379Z,472.735992
2019-03-23T00:33:50.379Z,470.415009
2019-03-23T00:33:57.357Z,467.675995
2019-03-23T00:34:04.352Z,465.687988
2019-03-23T00:34:11.362Z,466.355011
2019-03-23T00:34:18.369Z,469.173004
2019-03-23T00:34:25.483Z,471.696991
2019-03-23T00:34:32.354Z,471.093994
2019-03-23T00:34:39.363Z,466.417999
2019-03-23T00:34:46.362Z,463.925995
2019-03-23T00:34:53.362Z,462.903992
2019-03-23T00:35:00.457Z,462.748993
2019-03-23T00:35:07.356Z,463.971985
2019-03-23T00:35:14.357Z,465.520996
2019-03-23T00:35:21.350Z,465.260010
2019-03-23T00:35:28.373Z,465.613007
2019-03-23T00:35:35.369Z,465.759003
2019-03-23T00:35:42.374Z,463.270996
2019-03-23T00:35:49.384Z,460.213013
2019-03-23T00:35:56.361Z,457.779999
2019-03-23T00:36:03.368Z,455.970001
2019-03-23T00:36:10.366Z,456.091003
2019-03-23T00:36:17.377Z,456.084991
2019-03-23T00:36:24.357Z,456.334015
2019-03-23T00:36:41.289Z,456.502014
2019-03-23T00:36:48.415Z,455.924988
2019-03-23T00:36:55.358Z,456.454010
2019-03-23T00:37:02.353Z,458.286987
2019-03-23T00:37:09.430Z,459.028015
2019-03-23T00:37:16.360Z,459.447998
2019-03-23T00:37:23.359Z,457.912994
2019-03-23T00:37:30.357Z,456.423004
2019-03-23T00:37:37.347Z,453.825989
2019-03-23T00:37:44.381Z,452.789001
2019-03-23T00:37:51.343Z,452.308014
2019-03-23T00:37:58.396Z,450.808014
2019-03-23T00:38:05.361Z,448.799988
2019-03-23T00:38:12.376Z,446.842010
2019-03-23T00:38:19.383Z,448.763000
2019-03-23T00:38:26.363Z,449.709015
2019-03-23T00:38:33.365Z,449.944000
2019-03-23T00:38:40.362Z,449.950989
2019-03-23T00:38:47.362Z,448.821014
2019-03-23T00:38:54.359Z,449.217987
2019-03-23T00:39:01.353Z,451.136993
2019-03-23T00:39:08.349Z,454.440002
2019-03-23T00:39:15.376Z,458.269012
2019-03-23T00:39:21.381Z,459.093994
2019-03-23T00:39:27.356Z,456.890991
2019-03-23T00:39:33.382Z,454.812988
2019-03-23T00:39:39.349Z,453.194000
2019-03-23T00:39:45.367Z,453.378998
2019-03-23T00:39:51.371Z,454.191986
2019-03-23T00:39:57.375Z,454.924988
2019-03-23T00:40:03.349Z,453.769012
2019-03-23T00:40:09.381Z,453.299011
2019-03-23T00:40:15.356Z,453.217010
2019-03-23T00:40:21.357Z,454.981995
2019-03-23T00:40:27.352Z,454.359009
2019-03-23T00:40:33.384Z,455.639008
2019-03-23T00:40:39.356Z,459.274994
2019-03-23T00:40:45.352Z,462.515991
2019-03-23T00:40:51.382Z,463.549011
2019-03-23T00:40:57.354Z,463.260986
2019-03-23T00:41:03.420Z,461.139008
2019-03-23T00:41:09.360Z,460.997009
2019-03-23T00:41:15.365Z,459.737000
2019-03-23T00:41:21.437Z,459.040009
2019-03-23T00:41:27.352Z,460.942993
2019-03-23T00:41:33.379Z,460.613007
2019-03-23T00:41:39.420Z,457.684998
2019-03-23T00:41:45.375Z,457.552002
2019-03-23T00:41:51.361Z,457.466003
2019-03-23T00:41:57.360Z,457.692993
2019-03-23T00:42:03.353Z,459.253998
2019-03-23T00:42:09.370Z,460.770996
2019-03-23T00:42:15.413Z,462.989014
2019-03-23T00:42:21.365Z,460.174988
2019-03-23T00:42:27.413Z,457.936005
2019-03-23T00:42:33.352Z,456.462006
2019-03-23T00:42:39.382Z,457.434998
2019-03-23T00:42:45.367Z,459.681000
2019-03-23T00:42:51.377Z,461.067993
2019-03-23T00:42:57.390Z,463.230011
2019-03-23T00:43:03.359Z,462.226013
2019-03-23T00:43:09.356Z,463.864014
2019-03-23T00:43:15.352Z,464.811005
2019-03-23T00:43:21.377Z,463.403015
2019-03-23T00:43:27.381Z,464.010986
2019-03-23T00:43:33.345Z,464.450989
2019-03-23T00:43:39.360Z,465.415009
2019-03-23T00:43:45.369Z,461.394989
2019-03-23T00:43:51.362Z,457.199005
2019-03-23T00:43:57.379Z,452.929993
2019-03-23T00:44:03.387Z,450.951996
2019-03-23T00:44:09.351Z,449.283997
2019-03-23T00:44:15.356Z,448.506989
2019-03-23T00:44:21.385Z,448.131989
2019-03-23T00:44:27.355Z,448.382996
2019-03-23T00:44:33.370Z,448.218994
2019-03-23T00:44:39.360Z,446.981995
2019-03-23T00:44:45.366Z,445.889008
2019-03-23T00:44:51.383Z,445.761993
2019-03-23T00:44:57.351Z,446.281006
2019-03-23T00:45:03.382Z,446.470001
2019-03-23T00:45:09.363Z,446.881012
2019-03-23T00:45:15.362Z,445.959015
2019-03-23T00:45:21.371Z,446.110992
2019-03-23T00:45:27.361Z,444.654999
2019-03-23T00:45:33.357Z,445.924011
2019-03-23T00:45:39.366Z,446.529999
2019-03-23T00:45:45.362Z,446.276001
2019-03-23T00:45:51.354Z,445.973999
2019-03-23T00:45:57.383Z,445.721985
2019-03-23T00:46:03.360Z,445.398987
2019-03-23T00:46:09.369Z,447.627014
2019-03-23T00:46:15.359Z,448.584015
2019-03-23T00:46:21.359Z,450.479004
2019-03-23T00:46:27.348Z,452.846008
2019-03-23T00:46:33.368Z,454.388000
2019-03-23T00:46:39.422Z,455.277008
2019-03-23T00:46:45.380Z,453.233002
2019-03-23T00:46:51.367Z,451.510010
2019-03-23T00:46:57.445Z,450.371002
2019-03-23T00:47:03.394Z,450.567993
2019-03-23T00:47:09.368Z,448.475006
2019-03-23T00:47:15.362Z,449.234009
2019-03-23T00:47:21.430Z,448.997009
2019-03-23T00:47:27.357Z,449.175995
2019-03-23T00:47:33.350Z,451.208008
2019-03-23T00:47:39.368Z,453.760010
2019-03-23T00:47:45.368Z,456.218994
2019-03-23T00:47:51.364Z,457.835999
2019-03-23T00:47:57.373Z,458.937988
2019-03-23T00:48:03.375Z,459.638000
2019-03-23T00:48:09.368Z,461.368988
2019-03-23T00:48:15.358Z,461.128998
2019-03-23T00:48:21.363Z,461.197998
2019-03-23T00:48:27.361Z,460.368988
2019-03-23T00:48:33.368Z,458.981995
2019-03-23T00:48:39.367Z,457.436005
2019-03-23T00:48:45.386Z,455.122009
2019-03-23T00:48:52.357Z,455.626007
2019-03-23T00:48:59.353Z,455.096985
2019-03-23T00:49:06.357Z,451.054993
2019-03-23T00:49:13.425Z,448.112000
2019-03-23T00:49:20.370Z,448.753998
2019-03-23T00:49:27.364Z,451.937988
2019-03-23T00:49:34.371Z,453.274994
2019-03-23T00:49:41.366Z,455.906006
2019-03-23T00:49:48.364Z,455.819000
2019-03-23T00:49:55.351Z,456.417999
2019-03-23T00:50:02.353Z,455.362000
2019-03-23T00:50:09.348Z,458.933014
2019-03-23T00:50:16.370Z,462.415009
2019-03-23T00:50:23.364Z,462.752991
2019-03-23T00:50:30.364Z,462.963989
2019-03-23T00:50:37.359Z,460.765991
2019-03-23T00:50:44.357Z,459.588989
2019-03-23T00:50:51.352Z,459.507996
2019-03-23T00:50:58.370Z,454.127991
2019-03-23T00:51:05.368Z,452.316010
2019-03-23T00:51:12.373Z,452.056000
2019-03-23T00:51:19.378Z,451.179993
2019-03-23T00:51:26.347Z,449.549988
2019-03-23T00:51:32.376Z,452.376007
2019-03-23T00:51:38.356Z,455.243988
2019-03-23T00:51:44.394Z,457.915985
2019-03-23T00:51:50.365Z,457.378998
2019-03-23T00:51:56.369Z,458.912994
2019-03-23T00:52:02.368Z,460.971008
2019-03-23T00:52:08.364Z,459.489990
2019-03-23T00:52:14.369Z,458.098999
2019-03-23T00:52:20.363Z,458.325989
2019-03-23T00:52:26.349Z,457.734985
2019-03-23T00:52:32.378Z,457.612000
2019-03-23T00:52:38.355Z,459.105011
2019-03-23T00:52:44.354Z,456.579987
2019-03-23T00:52:50.367Z,456.006989
2019-03-23T00:52:56.375Z,454.531006
2019-03-23T00:53:02.349Z,454.920013
2019-03-23T00:53:08.352Z,455.566010
2019-03-23T00:53:14.394Z,454.165009
2019-03-23T00:53:20.334Z,454.779999
2019-03-23T00:53:26.366Z,456.244995
2019-03-23T00:53:32.383Z,457.675995
2019-03-23T00:53:38.355Z,457.497986
2019-03-23T00:53:44.350Z,456.359985
2019-03-23T00:53:50.375Z,453.647003
2019-03-23T00:53:56.374Z,453.772003
2019-03-23T00:54:02.366Z,455.851013
2019-03-23T00:54:08.377Z,456.610992
2019-03-23T00:54:14.351Z,458.053986
2019-03-23T00:54:20.395Z,459.048004
2019-03-23T00:54:26.357Z,459.402008
2019-03-23T00:54:32.359Z,459.243988
2019-03-23T00:54:39.382Z,457.528992
2019-03-23T00:54:46.353Z,455.946991
2019-03-23T00:54:53.441Z,454.867004
2019-03-23T00:55:00.573Z,452.647003
2019-03-23T00:55:07.346Z,450.970001
2019-03-23T00:55:14.367Z,453.825012
2019-03-23T00:55:21.364Z,451.828003
2019-03-23T00:55:28.372Z,452.975006
2019-03-23T00:55:35.413Z,452.085999
2019-03-23T00:55:42.364Z,450.345001
2019-03-23T00:55:49.365Z,451.694000
2019-03-23T00:55:56.367Z,451.363007
2019-03-23T00:56:03.364Z,449.320007
2019-03-23T00:56:10.372Z,446.717987
2019-03-23T00:56:17.368Z,450.208008
2019-03-23T00:56:24.379Z,452.240997
2019-03-23T00:56:31.355Z,455.062988
2019-03-23T00:56:38.361Z,457.230988
2019-03-23T00:56:45.394Z,457.813995
2019-03-23T00:56:52.363Z,456.717987
2019-03-23T00:56:59.363Z,460.441986
2019-03-23T00:57:06.363Z,463.612000
2019-03-23T00:57:13.363Z,465.791992
2019-03-23T00:57:20.355Z,465.467987
2019-03-23T00:57:27.360Z,464.934998
2019-03-23T00:57:34.368Z,463.050995
2019-03-23T00:57:41.370Z,461.312988
2019-03-23T00:57:48.382Z,462.493988
2019-03-23T00:57:55.363Z,464.427002
2019-03-23T00:58:02.369Z,462.848999
2019-03-23T00:58:09.372Z,463.420013
2019-03-23T00:58:16.419Z,464.338989
2019-03-23T00:58:23.374Z,466.178986
2019-03-23T00:58:30.378Z,465.210999
2019-03-23T00:58:37.391Z,462.700989
2019-03-23T00:58:44.388Z,462.846985
2019-03-23T00:58:51.358Z,461.877014
2019-03-23T00:58:58.363Z,459.583008
2019-03-23T00:59:05.366Z,458.174988
2019-03-23T00:59:12.375Z,456.783997
2019-03-23T00:59:19.373Z,454.742004
2019-03-23T00:59:26.382Z,454.630005
2019-03-23T00:59:33.362Z,453.240997
2019-03-23T00:59:40.365Z,451.160004
2019-03-23T00:59:46.363Z,448.933990
2019-03-23T00:59:52.354Z,448.589996
2019-03-23T00:59:58.346Z,448.730011
2019-03-23T01:00:04.368Z,449.075012
2019-03-23T01:00:10.387Z,448.627014
2019-03-23T01:00:16.408Z,450.065002
2019-03-23T01:00:22.361Z,452.708008
2019-03-23T01:00:28.371Z,454.924011
2019-03-23T01:00:34.368Z,457.984009
2019-03-23T01:00:41.358Z,458.395996
2019-03-23T01:00:47.389Z,460.153992
2019-03-23T01:00:53.357Z,463.903992
2019-03-23T01:00:59.392Z,467.524994
2019-03-23T01:01:05.358Z,470.367004
2019-03-23T01:01:12.364Z,470.009003
2019-03-23T01:01:18.354Z,470.643005
2019-03-23T01:01:24.356Z,471.208008
2019-03-23T01:01:30.356Z,471.524994
2019-03-23T01:01:36.354Z,471.450012
2019-03-23T01:01:42.396Z,471.364990
2019-03-23T01:01:48.706Z,474.106995
2019-03-23T01:01:54.352Z,475.123993
2019-03-23T01:02:00.348Z,477.407013
2019-03-23T01:02:06.371Z,479.244995
2019-03-23T01:02:12.366Z,480.384003
2019-03-23T01:02:18.358Z,481.572998
2019-03-23T01:02:24.362Z,480.100006
2019-03-23T01:02:30.408Z,478.947998
2019-03-23T01:02:36.349Z,479.354004
2019-03-23T01:02:42.406Z,476.339996
2019-03-23T01:02:48.377Z,474.190002
2019-03-23T01:02:54.403Z,473.342010
2019-03-23T01:03:00.373Z,474.048004
2019-03-23T01:03:06.368Z,473.957001
2019-03-23T01:03:12.374Z,473.955994
2019-03-23T01:03:18.371Z,473.242004
2019-03-23T01:03:24.360Z,472.716003
2019-03-23T01:03:30.356Z,472.468994
2019-03-23T01:03:36.372Z,472.968994
2019-03-23T01:03:42.361Z,471.553009
2019-03-23T01:03:48.367Z,467.459015
2019-03-23T01:03:54.368Z,464.860992
2019-03-23T01:04:00.373Z,462.574005
2019-03-23T01:04:06.362Z,461.402008
2019-03-23T01:04:12.354Z,461.299011
2019-03-23T01:04:18.358Z,459.951996
2019-03-23T01:04:24.363Z,457.821991
2019-03-23T01:04:30.357Z,456.015015
2019-03-23T01:04:36.364Z,454.153015
2019-03-23T01:04:42.360Z,451.612000
2019-03-23T01:04:48.350Z,450.013000
2019-03-23T01:04:54.382Z,448.967010
2019-03-23T01:05:00.472Z,448.069000
2019-03-23T01:05:06.366Z,446.963989
2019-03-23T01:05:12.356Z,444.634003
2019-03-23T01:05:18.352Z,442.216003
2019-03-23T01:05:24.346Z,441.533997
2019-03-23T01:05:30.357Z,440.921997
2019-03-23T01:05:36.362Z,439.716003
2019-03-23T01:05:42.368Z,438.299011
2019-03-23T01:05:48.364Z,436.553986
2019-03-23T01:05:54.361Z,435.906006
2019-03-23T01:06:00.361Z,438.487000
2019-03-23T01:06:07.351Z,440.721985
2019-03-23T01:06:14.351Z,442.334991
2019-03-23T01:06:21.385Z,442.209991
2019-03-23T01:06:28.364Z,440.675995
2019-03-23T01:06:35.358Z,439.153015
2019-03-23T01:06:52.258Z,439.277008
2019-03-23T01:06:59.416Z,438.832001
2019-03-23T01:07:06.356Z,441.640991
2019-03-23T01:07:13.354Z,441.878998
2019-03-23T01:07:20.365Z,439.760986
2019-03-23T01:07:27.357Z,436.864014
2019-03-23T01:07:34.350Z,437.368988
2019-03-23T01:07:41.403Z,436.903015
2019-03-23T01:07:48.371Z,436.225006
2019-03-23T01:07:55.365Z,437.125000
2019-03-23T01:08:02.352Z,436.497986
2019-03-23T01:08:09.355Z,433.770996
2019-03-23T01:08:16.355Z,430.403015
2019-03-23T01:08:23.342Z,428.700012
2019-03-23T01:08:30.360Z,427.677002
2019-03-23T01:08:37.353Z,428.200989
2019-03-23T01:08:43.373Z,429.946991
2019-03-23T01:08:49.403Z,431.200012
2019-03-23T01:08:55.365Z,433.781006
2019-03-23T01:09:01.360Z,438.112000
2019-03-23T01:09:07.365Z,443.062012
2019-03-23T01:09:14.370Z,444.332001
2019-03-23T01:09:20.365Z,445.184998
2019-03-23T01:09:26.360Z,445.920990
2019-03-23T01:09:32.419Z,446.766998
2019-03-23T01:09:38.484Z,446.371002
2019-03-23T01:09:45.407Z,447.333008
2019-03-23T01:09:51.492Z,448.050995
2019-03-23T01:09:57.384Z,448.122986
2019-03-23T01:10:03.365Z,449.024994
2019-03-23T01:10:09.375Z,451.161011
2019-03-23T01:10:15.371Z,452.106995
2019-03-23T01:10:21.359Z,454.576996
2019-03-23T01:10:27.351Z,454.261993
2019-03-23T01:10:33.375Z,454.575012
2019-03-23T01:10:39.382Z,454.118988
2019-03-23T01:10:45.376Z,455.915985
2019-03-23T01:10:51.348Z,460.855988
2019-03-23T01:10:57.388Z,466.040985